Latest METARs, TAFs and NOTAMs for ETSI


---------------------------------------------------------------------------
	(OBSERVATIONS)
ETSI 301420Z 24003KT 7000 FEW007 BKN013 11/09 Q1026 GRN GRN TEMPO
    WHT=
ETSI 301400Z 27003KT 7000 FEW007 BKN013 BKN017 11/09 Q1025 GRN
    GRN TEMPO WHT=
ETSI 301340Z 31003KT 6000 SCT007 SCT012 BKN017 11/09 Q1025 WHT
    GRN TEMPO WHT=
ETSI 301320Z 30004KT 6000 BKN007 BKN015 11/09 Q1025 GRN GRN TEMPO
    WHT=
ETSI 301307Z 30004KT 5000 BR BKN007 BKN015 11/09 Q1025 GRN GRN
    TEMPO WHT=
ETSI 301220Z 29003KT 3800 BR OVC007 10/09 Q1025 GRN GRN TEMPO
    YLO=
---------------------------------------------------------------------------
	(FC)
TAF ETSI 301415Z 3015/3024 25003KT 6000 NSW SCT007 BKN010 BKN050
     BECMG 3018/3020 VRB02KT 3000 BR BKN005 BKN025
     PROB30 3021/3024 VRB01KT 0500 FG VV001 BKN025=
---------------------------------------------------------------------------
	(TERMINAL AREA FORECAST)
ETSI 301415Z 3015/3024 25003KT 6000 NSW SCT007 BKN010 BKN050
    BECMG 3018/3020 VRB02KT 3000 BR BKN005 BKN025 PROB30
    3021/3024
    VRB01KT 0500 FG VV001 BKN025=
---------------------------------------------------------------------------
	(NOTAMS)


ETSI E1091/14 SPECIAL ACTIVITY AREA ESTABLISHED FOR GLIDER AEROBATICS
    RADIUS 3NM CENTERED AT 4842N 01132E INGOLSTADT/MANCHING AIRFIELD.
    GND - 6000FT AMSL, SAT-SUN 0700-SS, DEC 25 26 0700-SS, 26
    OCT 07:00 2014 UNTIL 28 DEC 15:14 2014. CREATED: 07 MAY 09:44
    2014

ETSI P5327/14 AD ETSI: LVTO-PROCEDURE SUSPENDED. 25 AUG 14:58
    2014 UNTIL 21 NOV 10:00 2014. CREATED: 25 AUG 15:04 2014

ETSI P5328/14 AD ETSI: NO SRA POSSIBLE. 25 AUG 15:01 2014 UNTIL
    21 NOV 10:00 2014. CREATED: 25 AUG 15:05 2014

ETSI P5346/14 AD ETSI: PAR RWY25R/07L OUT OF SERVICE. 26 AUG
    06:15 2014 UNTIL 21 NOV 10:00 2014. CREATED: 26 AUG 06:19
    2014

ETSI P6270/14 AD ETSI: PAR RWY25L/07R OUT OF SERVICE. 02 OCT
    15:00 2014 UNTIL 23 DEC 13:00 2014. CREATED: 01 OCT 12:23
    2014

ETSI P6663/14 AD ETSI: NO RADAR SERVICE AVAILABLE DUE TO LACK
    OF PERSONNEL. 27 OCT 05:00 2014 UNTIL 31 OCT 12:00 2014.
    CREATED: 17 OCT 08:15 2014

ETSI P6763/14 AD ETSI: AERODROME CLOSED (EXCEPT SCHEDULED CIVIL
    TRAFFIC. 31 OCT 08:00 2014 UNTIL 04 NOV 08:00 2014. CREATED:
    22 OCT 06:35 2014

ETSI P6862/14 AD ETSI: 24HRS PPR. 24 OCT 09:08 2014 UNTIL 07
    NOV 13:00 2014. CREATED: 24 OCT 09:11 2014

ETSI P6863/14 AD ETSI: NO APPROACH END ARRESTMENT ON RWY07L.
    24 OCT 09:10 2014 UNTIL 07 NOV 13:00 2014. CREATED: 24 OCT
    09:18 2014

ETSI P6864/14 AD ETSI: NO PRACT APCH. 24 OCT 09:12 2014 UNTIL
    07 NOV 13:00 2014. CREATED: 24 OCT 09:19 2014

ETSI P6865/14 AD ETSI: NO ALTERNATE. 24 OCT 09:14 2014 UNTIL
    07 NOV 13:00 2014. CREATED: 24 OCT 09:20 2014

ETSI P6867/14 ORIGINAL TEXT OF THE NOTAM TO BE REPLACED: AD ETSI:
    TAKEOFF OF MIL JETS ONLY BTWN: MON-THU: 0800-1100 AND 1230-1600,
    FRI: 0800-1100. 24 OCT 09:18 2014 UNTIL 07 NOV 13:00 2014.
    CREATED: 24 OCT 09:24 2014

ETSI P6961/14 AD ETSI: RWY25L/O7R CLOSED ( EXCEPT AUTHORIZED
    A3ST BELUGA MOVEMENTS. 28 OCT 08:53 2014 UNTIL 07 NOV 13:00
    2014. CREATED: 28 OCT 08:59 2014

ETSI P7046/14 AD ETSI: AERODROME CLOSED (EXCEPT FOR CIVIL AIR
    TRAFFIC). 30 OCT 14:30 2014 UNTIL 30 OCT 16:00 2014. CREATED:
    30 OCT 14:27 2014

ETSI V0419/14 [DOD PROCEDURAL NOTAM] IAP TACAN RWY 25R: INCREASE
    ALL INBOUND/OUTBOUND COURSES/RADIALS BY 1 DEGREE. 28 OCT
    10:08 2014 UNTIL 15 JAN 23:59 2015. CREATED: 28 OCT 10:09
    2014

ETSI V0420/14 [DOD PROCEDURAL NOTAM] IAP TACAN RWY 07R: CHANGE
    IGL OUTBOUND RADIAL TO R-216. 28 OCT 10:09 2014 UNTIL 15
    JAN 23:59 2015. CREATED: 28 OCT 10:10 2014

---------------------------------------------------------------------------